createdAt,value
2023-01-13T00:03:12.913Z,33.86
2023-01-13T00:08:20.089Z,32.62
2023-01-13T00:13:27.331Z,32.58
2023-01-13T00:18:34.612Z,33.47
2023-01-13T00:23:41.814Z,33.18
2023-01-13T00:28:49.027Z,33.35
2023-01-13T00:33:56.316Z,33.81
2023-01-13T00:39:03.530Z,33.97
2023-01-13T00:44:10.739Z,34.00
2023-01-13T00:49:17.960Z,33.72
2023-01-13T00:54:25.160Z,32.34
2023-01-13T00:59:32.486Z,33.39
2023-01-13T01:04:39.857Z,33.69
2023-01-13T01:09:47.063Z,32.93
2023-01-13T01:14:54.270Z,33.86
2023-01-13T01:20:01.516Z,34.02
2023-01-13T01:25:08.773Z,33.75
2023-01-13T01:30:16.039Z,34.26
2023-01-13T01:35:23.306Z,34.19
2023-01-13T01:40:30.496Z,34.39
2023-01-13T01:45:37.721Z,34.52
2023-01-13T01:50:45.028Z,34.72
2023-01-13T01:55:52.220Z,34.64
2023-01-13T02:00:59.526Z,34.71
2023-01-13T02:06:06.647Z,34.68
2023-01-13T02:11:13.914Z,34.66
2023-01-13T02:16:21.186Z,34.58
2023-01-13T02:21:28.357Z,34.39
2023-01-13T02:26:35.539Z,34.65
2023-01-13T02:31:42.919Z,34.59
2023-01-13T02:36:50.077Z,34.34
2023-01-13T02:41:57.285Z,34.64
2023-01-13T02:47:04.499Z,34.71
2023-01-13T02:52:11.811Z,34.76
2023-01-13T02:57:18.975Z,34.79
2023-01-13T03:02:26.319Z,34.72
2023-01-13T03:07:33.361Z,34.55
2023-01-13T03:12:40.501Z,34.68
2023-01-13T03:17:47.755Z,34.85
2023-01-13T03:22:54.944Z,34.80
2023-01-13T03:28:02.159Z,34.60
2023-01-13T03:33:09.367Z,34.12
2023-01-13T03:38:16.633Z,34.39
2023-01-13T03:43:23.878Z,34.11
2023-01-13T03:48:31.079Z,33.38
2023-01-13T03:53:38.425Z,33.72
2023-01-13T03:58:45.696Z,33.07
2023-01-13T04:03:52.896Z,32.55
2023-01-13T04:09:00.030Z,33.20
2023-01-13T04:14:07.199Z,33.45
2023-01-13T04:19:14.391Z,33.46
2023-01-13T04:24:21.618Z,33.40
2023-01-13T04:29:28.814Z,33.88
2023-01-13T04:34:35.977Z,33.55
2023-01-13T04:39:43.233Z,33.90
2023-01-13T04:44:50.356Z,33.97
2023-01-13T04:49:57.601Z,33.71
2023-01-13T04:55:04.858Z,34.20
2023-01-13T05:00:12.018Z,34.30
2023-01-13T05:05:19.280Z,34.44
2023-01-13T05:10:26.429Z,34.55
2023-01-13T05:15:33.748Z,34.64
2023-01-13T05:20:40.811Z,34.62
2023-01-13T05:25:48.101Z,34.74
2023-01-13T05:30:55.303Z,34.81
2023-01-13T05:36:02.488Z,34.81
2023-01-13T05:41:09.725Z,34.88
2023-01-13T05:46:17.011Z,34.69
2023-01-13T05:51:24.284Z,34.90
2023-01-13T05:56:31.518Z,34.97
2023-01-13T06:01:38.711Z,34.97
2023-01-13T06:06:45.929Z,35.00
2023-01-13T06:11:53.329Z,35.03
2023-01-13T06:17:00.662Z,35.10
2023-01-13T06:22:07.838Z,35.03
2023-01-13T06:27:15.033Z,34.94
2023-01-13T06:32:22.244Z,34.96
2023-01-13T06:37:29.466Z,34.84
2023-01-13T06:42:36.722Z,34.96
2023-01-13T06:47:43.865Z,34.88
2023-01-13T06:52:51.063Z,34.83
2023-01-13T06:57:58.301Z,34.87
2023-01-13T07:03:07.032Z,34.87
2023-01-13T07:08:12.589Z,34.71
2023-01-13T07:13:20.016Z,34.90
2023-01-13T07:18:27.117Z,34.94
2023-01-13T07:23:34.286Z,34.89
2023-01-13T07:28:41.546Z,34.93
2023-01-13T07:33:48.706Z,35.03
2023-01-13T07:38:55.850Z,35.07
2023-01-13T07:44:03.061Z,35.25
2023-01-13T07:49:10.202Z,35.70
2023-01-13T07:54:19.318Z,35.45
2023-01-13T07:59:24.631Z,35.32
2023-01-13T08:04:31.816Z,35.23
2023-01-13T08:09:39.035Z,35.05
2023-01-13T08:14:46.274Z,34.98
2023-01-13T08:19:53.482Z,34.68
2023-01-13T08:25:00.641Z,34.46
2023-01-13T08:30:07.884Z,34.30
2023-01-13T08:35:15.082Z,34.16
2023-01-13T08:40:22.376Z,34.02
2023-01-13T08:45:29.628Z,33.88
2023-01-13T08:50:36.834Z,33.77
2023-01-13T08:55:44.105Z,33.70
2023-01-13T09:00:51.314Z,33.55
2023-01-13T09:05:58.515Z,33.67
2023-01-13T09:11:05.992Z,33.54
2023-01-13T09:16:13.333Z,33.39
2023-01-13T09:21:20.421Z,33.33
2023-01-13T09:26:27.619Z,33.33
2023-01-13T09:31:34.935Z,33.39
2023-01-13T09:36:42.012Z,33.37
2023-01-13T09:41:49.171Z,33.43
2023-01-13T09:46:56.374Z,33.33
2023-01-13T09:52:03.587Z,33.41
2023-01-13T09:57:10.823Z,33.52
2023-01-13T10:02:18.094Z,33.49
2023-01-13T10:07:25.218Z,33.67
2023-01-13T10:12:32.465Z,33.12
2023-01-13T10:17:39.694Z,33.38
2023-01-13T10:22:46.865Z,33.35
2023-01-13T10:27:54.094Z,33.35
2023-01-13T10:33:01.377Z,33.36
2023-01-13T10:38:08.599Z,33.19
2023-01-13T10:43:15.852Z,33.09
2023-01-13T10:48:23.129Z,32.90
2023-01-13T10:53:30.311Z,32.65
2023-01-13T10:58:37.532Z,32.61
2023-01-13T11:03:44.761Z,32.62
2023-01-13T11:08:51.914Z,32.61
2023-01-13T11:13:59.142Z,32.59
2023-01-13T11:19:06.304Z,32.75
2023-01-13T11:24:13.538Z,32.78
2023-01-13T11:29:20.725Z,32.88
2023-01-13T11:34:27.975Z,32.97
2023-01-13T11:39:35.209Z,33.01
2023-01-13T11:44:42.455Z,32.97
2023-01-13T11:49:49.662Z,32.94
2023-01-13T11:54:56.801Z,32.89
2023-01-13T12:00:03.970Z,32.82
2023-01-13T12:05:11.196Z,32.94
2023-01-13T12:10:18.447Z,32.82
2023-01-13T12:15:25.528Z,33.13
2023-01-13T12:20:32.998Z,33.17
2023-01-13T12:25:40.177Z,33.26
2023-01-13T12:30:47.335Z,34.25
2023-01-13T12:35:54.600Z,34.10
2023-01-13T12:41:01.798Z,34.00
2023-01-13T12:46:09.033Z,33.96
2023-01-13T12:51:18.249Z,34.12
2023-01-13T12:56:23.415Z,34.29
2023-01-13T13:01:30.719Z,34.37
2023-01-13T13:06:37.780Z,34.35
2023-01-13T13:11:44.952Z,34.39
2023-01-13T13:16:52.347Z,34.57
2023-01-13T13:21:59.559Z,34.61
2023-01-13T13:27:06.738Z,35.65
2023-01-13T13:32:13.960Z,36.01
2023-01-13T13:37:21.198Z,35.90
2023-01-13T13:42:28.363Z,36.12
2023-01-13T13:47:35.530Z,36.07
2023-01-13T13:52:42.779Z,36.09
2023-01-13T13:57:50.286Z,36.03
2023-01-13T14:02:57.504Z,35.81
2023-01-13T14:08:04.725Z,35.97
2023-01-13T14:13:11.893Z,36.32
2023-01-13T14:18:19.041Z,36.35
2023-01-13T14:23:26.259Z,36.64
2023-01-13T14:28:33.343Z,36.47
2023-01-13T14:33:40.498Z,36.12
2023-01-13T14:38:47.737Z,36.34
2023-01-13T14:43:54.939Z,36.31
2023-01-13T14:49:02.108Z,36.18
2023-01-13T14:54:09.286Z,36.23
2023-01-13T14:59:16.392Z,36.35
2023-01-13T15:04:23.661Z,36.09
2023-01-13T15:09:30.897Z,35.85
2023-01-13T15:14:38.088Z,35.71
2023-01-13T15:19:45.283Z,35.55
2023-01-13T15:24:52.468Z,35.45
2023-01-13T15:29:59.700Z,35.43
2023-01-13T15:35:06.935Z,35.42
2023-01-13T15:40:14.131Z,35.47
2023-01-13T15:45:21.374Z,35.55
2023-01-13T15:50:28.620Z,35.57
2023-01-13T15:55:35.806Z,35.55
2023-01-13T16:00:43.074Z,35.61
2023-01-13T16:05:50.231Z,35.73
2023-01-13T16:10:57.507Z,35.71
2023-01-13T16:16:04.679Z,35.46
2023-01-13T16:21:11.923Z,35.29
2023-01-13T16:26:19.115Z,35.30
2023-01-13T16:31:26.352Z,35.19
2023-01-13T16:36:33.631Z,35.23
2023-01-13T16:41:40.891Z,35.56
2023-01-13T16:46:48.652Z,36.13
2023-01-13T16:51:55.859Z,36.03
2023-01-13T16:57:03.129Z,35.95
2023-01-13T17:02:10.276Z,35.53
2023-01-13T17:07:17.805Z,35.03
2023-01-13T17:12:25.281Z,35.13
2023-01-13T17:17:32.588Z,35.06
2023-01-13T17:22:39.824Z,34.96
2023-01-13T17:27:47.050Z,34.94
2023-01-13T17:32:54.177Z,35.06
2023-01-13T17:38:01.721Z,35.00
2023-01-13T17:43:09.169Z,35.16
2023-01-13T17:48:16.392Z,35.16
2023-01-13T17:53:23.597Z,35.26
2023-01-13T17:58:31.076Z,35.45
2023-01-13T18:03:38.385Z,35.29
2023-01-13T18:08:45.797Z,35.40
2023-01-13T18:13:53.092Z,35.21
2023-01-13T18:19:00.273Z,35.42
2023-01-13T18:24:07.781Z,35.26
2023-01-13T18:29:15.188Z,35.37
2023-01-13T18:34:22.400Z,35.33
2023-01-13T18:39:29.661Z,35.23
2023-01-13T18:44:37.675Z,35.42
2023-01-13T18:49:44.830Z,35.23
2023-01-13T18:54:52.345Z,35.42
2023-01-13T18:59:59.974Z,35.58
2023-01-13T19:05:07.311Z,35.19
2023-01-13T19:10:14.563Z,35.39
2023-01-13T19:15:21.799Z,35.77
2023-01-13T19:20:28.990Z,35.73
2023-01-13T19:25:36.277Z,35.75
2023-01-13T19:30:43.828Z,35.71
2023-01-13T19:35:51.431Z,35.41
2023-01-13T19:40:58.922Z,35.62
2023-01-13T19:46:08.098Z,35.71
2023-01-13T19:51:15.265Z,35.34
2023-01-13T19:56:22.802Z,35.38
2023-01-13T20:01:30.673Z,35.45
2023-01-13T20:06:38.021Z,34.69
2023-01-13T20:11:45.453Z,35.26
2023-01-13T20:16:52.918Z,35.32
2023-01-13T20:22:01.479Z,35.27
2023-01-13T20:27:08.855Z,35.26
2023-01-13T20:32:16.231Z,35.24
2023-01-13T20:37:23.548Z,35.20
2023-01-13T20:42:31.018Z,35.10
2023-01-13T20:47:38.656Z,34.90
2023-01-13T20:52:46.160Z,34.74
2023-01-13T20:57:54.673Z,34.75
2023-01-13T21:03:01.973Z,34.73
2023-01-13T21:08:09.140Z,34.67
2023-01-13T21:13:16.303Z,34.40
2023-01-13T21:18:23.643Z,34.44
2023-01-13T21:23:30.821Z,34.17
2023-01-13T21:28:38.029Z,34.29
2023-01-13T21:33:45.429Z,34.36
2023-01-13T21:38:52.637Z,34.36
2023-01-13T21:43:59.889Z,34.37
2023-01-13T21:49:07.136Z,34.35
2023-01-13T21:54:14.342Z,34.19
2023-01-13T21:59:21.554Z,34.46
2023-01-13T22:04:28.779Z,34.53
2023-01-13T22:09:35.982Z,34.52
2023-01-13T22:14:43.179Z,34.39
2023-01-13T22:19:50.394Z,34.20
2023-01-13T22:24:57.642Z,34.18
2023-01-13T22:30:04.866Z,33.96
2023-01-13T22:35:12.084Z,33.78
2023-01-13T22:40:19.308Z,33.74
2023-01-13T22:45:26.543Z,33.59
2023-01-13T22:50:34.451Z,33.43
2023-01-13T22:55:41.664Z,33.26
2023-01-13T23:00:48.827Z,33.23
2023-01-13T23:05:56.085Z,33.11
2023-01-13T23:11:03.257Z,33.07
2023-01-13T23:16:10.502Z,32.94
2023-01-13T23:21:17.679Z,32.81
2023-01-13T23:26:24.877Z,32.81
2023-01-13T23:31:32.106Z,32.78
2023-01-13T23:36:39.377Z,32.58
2023-01-13T23:41:46.564Z,32.49
2023-01-13T23:46:53.798Z,32.56
2023-01-13T23:52:01.024Z,32.54
2023-01-13T23:57:08.201Z,32.58
